Agency, Missouri
Current Conditions -  °F | °C
As of 7:53 AM on Friday 31 Oct 2014 (Local Time) from KSTJ Reporting Station
Clear Clear  
Wind Chill: -5°   Ceiling: Unl
Heat Index:   Visibility: 10mi
Dew Point: -6°   Wind: 13mph
Humidity: 64%   Direction: 360°N
Pressure: 30.49"   Gusts: NA
Location:  39.64°N, 94.74°W
Report Text: KSTJ 311253Z 36011KT 10SM CLR 00/M06 A3049 RMK AO2 SLP327 T00001061
Loading
Personal Weather Stations






























Interactive Weather Map
Tropical Storm Tracking
New forecast layout! Learn more

10-Day Weather Forecast

Advertisements
Track Severe Weather on mobile